sensor_id;sensor_type;location;lat;lon;timestamp;P1;durP1;ratioP1;P2;durP2;ratioP2
59907;SDS011;61804;54.926;73.496;2023-04-01T00:01:33;5.55;;;3.00;;
59907;SDS011;61804;54.926;73.496;2023-04-01T00:04:00;7.80;;;4.00;;
59907;SDS011;61804;54.926;73.496;2023-04-01T00:06:33;10.40;;;6.05;;
59907;SDS011;61804;54.926;73.496;2023-04-01T00:09:01;9.43;;;6.13;;
59907;SDS011;61804;54.926;73.496;2023-04-01T00:11:39;8.70;;;6.82;;
59907;SDS011;61804;54.926;73.496;2023-04-01T00:14:11;14.02;;;9.18;;
59907;SDS011;61804;54.926;73.496;2023-04-01T00:16:40;9.10;;;7.20;;
59907;SDS011;61804;54.926;73.496;2023-04-01T00:19:07;9.38;;;7.25;;
59907;SDS011;61804;54.926;73.496;2023-04-01T00:21:36;26.13;;;19.67;;
59907;SDS011;61804;54.926;73.496;2023-04-01T00:24:04;47.17;;;31.27;;
59907;SDS011;61804;54.926;73.496;2023-04-01T00:26:35;16.70;;;11.45;;
59907;SDS011;61804;54.926;73.496;2023-04-01T00:29:08;31.58;;;21.90;;
59907;SDS011;61804;54.926;73.496;2023-04-01T00:31:44;25.02;;;14.27;;
59907;SDS011;61804;54.926;73.496;2023-04-01T00:34:12;12.52;;;8.00;;
59907;SDS011;61804;54.926;73.496;2023-04-01T00:36:41;8.82;;;4.93;;
59907;SDS011;61804;54.926;73.496;2023-04-01T00:39:08;8.93;;;4.70;;
59907;SDS011;61804;54.926;73.496;2023-04-01T00:41:45;13.45;;;9.10;;
59907;SDS011;61804;54.926;73.496;2023-04-01T00:46:43;16.10;;;11.20;;
59907;SDS011;61804;54.926;73.496;2023-04-01T00:49:10;21.25;;;15.18;;
59907;SDS011;61804;54.926;73.496;2023-04-01T00:51:39;16.50;;;12.45;;
59907;SDS011;61804;54.926;73.496;2023-04-01T00:54:07;16.85;;;9.68;;
59907;SDS011;61804;54.926;73.496;2023-04-01T00:56:37;11.23;;;6.45;;
59907;SDS011;61804;54.926;73.496;2023-04-01T00:59:10;16.30;;;6.68;;
59907;SDS011;61804;54.926;73.496;2023-04-01T01:01:50;9.68;;;6.43;;
59907;SDS011;61804;54.926;73.496;2023-04-01T01:04:36;8.68;;;6.80;;
59907;SDS011;61804;54.926;73.496;2023-04-01T01:10:02;8.40;;;3.20;;
59907;SDS011;61804;54.926;73.496;2023-04-01T01:12:40;6.75;;;4.85;;
59907;SDS011;61804;54.926;73.496;2023-04-01T01:26:02;26.45;;;16.17;;
59907;SDS011;61804;54.926;73.496;2023-04-01T01:31:25;35.65;;;19.55;;
59907;SDS011;61804;54.926;73.496;2023-04-01T01:34:04;38.40;;;22.50;;
59907;SDS011;61804;54.926;73.496;2023-04-01T01:36:36;12.23;;;8.10;;
59907;SDS011;61804;54.926;73.496;2023-04-01T01:39:13;18.75;;;12.10;;
59907;SDS011;61804;54.926;73.496;2023-04-01T01:41:42;25.00;;;15.75;;
59907;SDS011;61804;54.926;73.496;2023-04-01T01:44:11;24.63;;;15.60;;
59907;SDS011;61804;54.926;73.496;2023-04-01T01:46:39;16.08;;;8.73;;
59907;SDS011;61804;54.926;73.496;2023-04-01T01:49:09;26.83;;;14.32;;
59907;SDS011;61804;54.926;73.496;2023-04-01T01:51:38;17.23;;;11.05;;
59907;SDS011;61804;54.926;73.496;2023-04-01T01:54:14;24.63;;;12.15;;
59907;SDS011;61804;54.926;73.496;2023-04-01T01:56:42;18.77;;;13.18;;
59907;SDS011;61804;54.926;73.496;2023-04-01T01:59:11;16.50;;;8.73;;
59907;SDS011;61804;54.926;73.496;2023-04-01T02:01:41;23.40;;;13.30;;
59907;SDS011;61804;54.926;73.496;2023-04-01T02:04:13;9.32;;;6.72;;
59907;SDS011;61804;54.926;73.496;2023-04-01T02:07:02;5.80;;;3.75;;
59907;SDS011;61804;54.926;73.496;2023-04-01T02:09:31;20.73;;;17.85;;
59907;SDS011;61804;54.926;73.496;2023-04-01T02:12:06;22.25;;;12.20;;
59907;SDS011;61804;54.926;73.496;2023-04-01T02:14:42;7.80;;;7.00;;
59907;SDS011;61804;54.926;73.496;2023-04-01T02:17:15;11.65;;;8.80;;
59907;SDS011;61804;54.926;73.496;2023-04-01T02:19:56;9.40;;;4.55;;
59907;SDS011;61804;54.926;73.496;2023-04-01T02:22:26;3.17;;;2.72;;
59907;SDS011;61804;54.926;73.496;2023-04-01T02:24:56;8.57;;;3.88;;
59907;SDS011;61804;54.926;73.496;2023-04-01T02:27:24;8.75;;;5.72;;
59907;SDS011;61804;54.926;73.496;2023-04-01T02:30:03;17.48;;;9.00;;
59907;SDS011;61804;54.926;73.496;2023-04-01T02:32:36;7.45;;;5.18;;
59907;SDS011;61804;54.926;73.496;2023-04-01T02:35:08;23.83;;;10.93;;
59907;SDS011;61804;54.926;73.496;2023-04-01T02:37:38;31.45;;;5.88;;
59907;SDS011;61804;54.926;73.496;2023-04-01T02:40:12;6.28;;;3.42;;
59907;SDS011;61804;54.926;73.496;2023-04-01T02:42:40;9.52;;;4.55;;
59907;SDS011;61804;54.926;73.496;2023-04-01T02:45:18;5.00;;;3.17;;
59907;SDS011;61804;54.926;73.496;2023-04-01T02:47:45;4.03;;;2.83;;
59907;SDS011;61804;54.926;73.496;2023-04-01T02:50:18;9.65;;;7.93;;
59907;SDS011;61804;54.926;73.496;2023-04-01T02:52:51;8.48;;;3.83;;
59907;SDS011;61804;54.926;73.496;2023-04-01T02:55:20;14.30;;;9.93;;
59907;SDS011;61804;54.926;73.496;2023-04-01T02:57:47;6.80;;;5.15;;
59907;SDS011;61804;54.926;73.496;2023-04-01T03:00:24;8.80;;;5.72;;
59907;SDS011;61804;54.926;73.496;2023-04-01T03:02:52;19.45;;;13.60;;
59907;SDS011;61804;54.926;73.496;2023-04-01T03:05:30;33.55;;;15.60;;
59907;SDS011;61804;54.926;73.496;2023-04-01T03:07:58;9.88;;;3.08;;
59907;SDS011;61804;54.926;73.496;2023-04-01T03:10:26;10.82;;;5.45;;
59907;SDS011;61804;54.926;73.496;2023-04-01T03:12:54;4.72;;;2.83;;
59907;SDS011;61804;54.926;73.496;2023-04-01T03:15:21;2.63;;;2.38;;
59907;SDS011;61804;54.926;73.496;2023-04-01T03:17:49;30.23;;;14.20;;
59907;SDS011;61804;54.926;73.496;2023-04-01T03:20:20;15.68;;;7.20;;
59907;SDS011;61804;54.926;73.496;2023-04-01T03:22:48;19.40;;;6.50;;
59907;SDS011;61804;54.926;73.496;2023-04-01T03:25:17;14.82;;;6.00;;
59907;SDS011;61804;54.926;73.496;2023-04-01T03:27:44;17.55;;;4.85;;
59907;SDS011;61804;54.926;73.496;2023-04-01T03:30:12;15.60;;;4.53;;
59907;SDS011;61804;54.926;73.496;2023-04-01T03:32:57;5.00;;;3.03;;
59907;SDS011;61804;54.926;73.496;2023-04-01T03:35:26;1.45;;;1.35;;
59907;SDS011;61804;54.926;73.496;2023-04-01T03:37:58;9.55;;;4.50;;
59907;SDS011;61804;54.926;73.496;2023-04-01T03:40:28;6.00;;;4.15;;
59907;SDS011;61804;54.926;73.496;2023-04-01T03:42:55;1.23;;;0.90;;
59907;SDS011;61804;54.926;73.496;2023-04-01T03:45:24;2.65;;;2.45;;
59907;SDS011;61804;54.926;73.496;2023-04-01T03:47:51;19.15;;;11.70;;
59907;SDS011;61804;54.926;73.496;2023-04-01T03:50:19;22.25;;;10.23;;
59907;SDS011;61804;54.926;73.496;2023-04-01T03:52:46;44.45;;;21.63;;
59907;SDS011;61804;54.926;73.496;2023-04-01T03:55:14;54.38;;;29.17;;
59907;SDS011;61804;54.926;73.496;2023-04-01T03:57:46;23.80;;;11.43;;
59907;SDS011;61804;54.926;73.496;2023-04-01T04:00:43;40.00;;;17.23;;
59907;SDS011;61804;54.926;73.496;2023-04-01T04:03:11;20.02;;;10.50;;
59907;SDS011;61804;54.926;73.496;2023-04-01T04:05:49;2.42;;;2.15;;
59907;SDS011;61804;54.926;73.496;2023-04-01T04:08:18;3.63;;;3.33;;
59907;SDS011;61804;54.926;73.496;2023-04-01T04:10:54;3.42;;;2.83;;
59907;SDS011;61804;54.926;73.496;2023-04-01T04:13:22;4.15;;;1.98;;
59907;SDS011;61804;54.926;73.496;2023-04-01T04:15:57;9.70;;;2.47;;
59907;SDS011;61804;54.926;73.496;2023-04-01T04:18:36;1.20;;;1.10;;
59907;SDS011;61804;54.926;73.496;2023-04-01T04:21:04;20.17;;;6.72;;
59907;SDS011;61804;54.926;73.496;2023-04-01T04:23:31;9.55;;;3.47;;
59907;SDS011;61804;54.926;73.496;2023-04-01T04:26:02;18.25;;;13.70;;
59907;SDS011;61804;54.926;73.496;2023-04-01T04:28:30;4.10;;;2.17;;
59907;SDS011;61804;54.926;73.496;2023-04-01T04:31:04;6.00;;;3.00;;
59907;SDS011;61804;54.926;73.496;2023-04-01T04:33:44;3.92;;;2.53;;
59907;SDS011;61804;54.926;73.496;2023-04-01T04:36:12;3.30;;;2.45;;
59907;SDS011;61804;54.926;73.496;2023-04-01T04:38:40;3.80;;;2.85;;
59907;SDS011;61804;54.926;73.496;2023-04-01T04:41:11;6.30;;;2.83;;
59907;SDS011;61804;54.926;73.496;2023-04-01T04:43:41;11.15;;;3.88;;
59907;SDS011;61804;54.926;73.496;2023-04-01T04:46:19;1.58;;;1.48;;
59907;SDS011;61804;54.926;73.496;2023-04-01T04:48:49;9.38;;;2.78;;
59907;SDS011;61804;54.926;73.496;2023-04-01T04:51:18;4.28;;;3.55;;
59907;SDS011;61804;54.926;73.496;2023-04-01T04:53:45;4.25;;;2.38;;
59907;SDS011;61804;54.926;73.496;2023-04-01T04:56:16;2.67;;;2.38;;
59907;SDS011;61804;54.926;73.496;2023-04-01T04:58:56;4.85;;;2.05;;
59907;SDS011;61804;54.926;73.496;2023-04-01T05:01:39;5.38;;;2.42;;
59907;SDS011;61804;54.926;73.496;2023-04-01T05:04:07;9.38;;;3.97;;
59907;SDS011;61804;54.926;73.496;2023-04-01T05:06:36;3.17;;;1.90;;
59907;SDS011;61804;54.926;73.496;2023-04-01T05:09:13;2.65;;;2.03;;
59907;SDS011;61804;54.926;73.496;2023-04-01T05:11:41;2.25;;;2.05;;
59907;SDS011;61804;54.926;73.496;2023-04-01T05:14:16;2.10;;;1.90;;
59907;SDS011;61804;54.926;73.496;2023-04-01T05:16:58;2.15;;;1.38;;
59907;SDS011;61804;54.926;73.496;2023-04-01T05:19:27;3.03;;;2.05;;
59907;SDS011;61804;54.926;73.496;2023-04-01T05:21:54;3.88;;;1.92;;
59907;SDS011;61804;54.926;73.496;2023-04-01T05:24:27;4.10;;;1.83;;
59907;SDS011;61804;54.926;73.496;2023-04-01T05:26:55;5.03;;;4.50;;
59907;SDS011;61804;54.926;73.496;2023-04-01T05:29:25;3.42;;;1.83;;
59907;SDS011;61804;54.926;73.496;2023-04-01T05:31:58;3.15;;;2.47;;
59907;SDS011;61804;54.926;73.496;2023-04-01T05:34:35;2.45;;;2.13;;
59907;SDS011;61804;54.926;73.496;2023-04-01T05:37:03;2.53;;;1.58;;
59907;SDS011;61804;54.926;73.496;2023-04-01T05:39:38;6.80;;;3.63;;
59907;SDS011;61804;54.926;73.496;2023-04-01T05:42:08;8.32;;;5.65;;
59907;SDS011;61804;54.926;73.496;2023-04-01T05:44:36;2.35;;;2.17;;
59907;SDS011;61804;54.926;73.496;2023-04-01T05:47:19;4.40;;;2.45;;
59907;SDS011;61804;54.926;73.496;2023-04-01T05:49:46;1.27;;;1.13;;
59907;SDS011;61804;54.926;73.496;2023-04-01T05:52:15;21.48;;;3.65;;
59907;SDS011;61804;54.926;73.496;2023-04-01T05:54:43;2.67;;;1.75;;
59907;SDS011;61804;54.926;73.496;2023-04-01T05:57:10;7.03;;;3.80;;
59907;SDS011;61804;54.926;73.496;2023-04-01T05:59:38;1.52;;;1.42;;
59907;SDS011;61804;54.926;73.496;2023-04-01T06:02:05;5.82;;;2.38;;
59907;SDS011;61804;54.926;73.496;2023-04-01T06:04:34;1.52;;;1.42;;
59907;SDS011;61804;54.926;73.496;2023-04-01T06:07:14;24.30;;;4.45;;
59907;SDS011;61804;54.926;73.496;2023-04-01T06:13:08;1.05;;;0.95;;
59907;SDS011;61804;54.926;73.496;2023-04-01T06:15:51;1.88;;;1.45;;
59907;SDS011;61804;54.926;73.496;2023-04-01T06:20:59;6.80;;;2.03;;
59907;SDS011;61804;54.926;73.496;2023-04-01T06:32:17;4.88;;;2.22;;
59907;SDS011;61804;54.926;73.496;2023-04-01T06:51:31;7.78;;;4.35;;
59907;SDS011;61804;54.926;73.496;2023-04-01T06:54:42;2.70;;;1.63;;
59907;SDS011;61804;54.926;73.496;2023-04-01T07:00:00;1.33;;;0.82;;
59907;SDS011;61804;54.926;73.496;2023-04-01T07:02:38;3.13;;;2.65;;
59907;SDS011;61804;54.926;73.496;2023-04-01T07:05:17;1.33;;;1.23;;
59907;SDS011;61804;54.926;73.496;2023-04-01T07:07:47;1.88;;;1.77;;
59907;SDS011;61804;54.926;73.496;2023-04-01T07:10:34;16.23;;;4.57;;
59907;SDS011;61804;54.926;73.496;2023-04-01T07:13:24;1.38;;;1.23;;
59907;SDS011;61804;54.926;73.496;2023-04-01T07:16:16;7.00;;;3.22;;
59907;SDS011;61804;54.926;73.496;2023-04-01T07:18:57;2.45;;;1.67;;
59907;SDS011;61804;54.926;73.496;2023-04-01T07:21:44;1.98;;;0.88;;
59907;SDS011;61804;54.926;73.496;2023-04-01T07:24:23;3.53;;;2.17;;
59907;SDS011;61804;54.926;73.496;2023-04-01T07:27:05;8.65;;;5.13;;
59907;SDS011;61804;54.926;73.496;2023-04-01T07:29:36;3.33;;;2.65;;
59907;SDS011;61804;54.926;73.496;2023-04-01T08:06:09;1.70;;;1.33;;
59907;SDS011;61804;54.926;73.496;2023-04-01T08:08:44;3.58;;;1.35;;
59907;SDS011;61804;54.926;73.496;2023-04-01T08:17:39;1.42;;;1.00;;
59907;SDS011;61804;54.926;73.496;2023-04-01T08:23:15;3.70;;;2.72;;
59907;SDS011;61804;54.926;73.496;2023-04-01T08:31:09;3.10;;;2.60;;
59907;SDS011;61804;54.926;73.496;2023-04-01T08:33:50;1.77;;;1.23;;
59907;SDS011;61804;54.926;73.496;2023-04-01T08:36:32;5.32;;;2.38;;
59907;SDS011;61804;54.926;73.496;2023-04-01T08:39:23;2.13;;;1.70;;
59907;SDS011;61804;54.926;73.496;2023-04-01T08:58:30;6.97;;;2.85;;
59907;SDS011;61804;54.926;73.496;2023-04-01T09:01:16;1.98;;;1.70;;
59907;SDS011;61804;54.926;73.496;2023-04-01T09:06:33;5.45;;;2.30;;
59907;SDS011;61804;54.926;73.496;2023-04-01T09:11:45;8.23;;;4.45;;
59907;SDS011;61804;54.926;73.496;2023-04-01T09:17:21;3.25;;;2.30;;
59907;SDS011;61804;54.926;73.496;2023-04-01T09:33:42;12.50;;;4.93;;
59907;SDS011;61804;54.926;73.496;2023-04-01T09:38:59;4.65;;;4.00;;
59907;SDS011;61804;54.926;73.496;2023-04-01T09:41:31;12.15;;;8.18;;
59907;SDS011;61804;54.926;73.496;2023-04-01T09:47:27;2.78;;;1.90;;
59907;SDS011;61804;54.926;73.496;2023-04-01T09:50:14;2.50;;;1.40;;
59907;SDS011;61804;54.926;73.496;2023-04-01T10:06:53;5.65;;;3.53;;
59907;SDS011;61804;54.926;73.496;2023-04-01T10:12:12;8.18;;;7.18;;
59907;SDS011;61804;54.926;73.496;2023-04-01T10:20:12;13.93;;;2.55;;
59907;SDS011;61804;54.926;73.496;2023-04-01T10:44:45;9.30;;;6.13;;
59907;SDS011;61804;54.926;73.496;2023-04-01T10:47:54;7.13;;;2.95;;
59907;SDS011;61804;54.926;73.496;2023-04-01T10:59:28;7.40;;;5.13;;
59907;SDS011;61804;54.926;73.496;2023-04-01T11:08:29;5.25;;;4.28;;
59907;SDS011;61804;54.926;73.496;2023-04-01T11:19:38;6.00;;;3.00;;
59907;SDS011;61804;54.926;73.496;2023-04-01T11:25:09;1.73;;;1.40;;
59907;SDS011;61804;54.926;73.496;2023-04-01T11:33:26;7.78;;;4.47;;
59907;SDS011;61804;54.926;73.496;2023-04-01T11:36:33;11.18;;;6.68;;
59907;SDS011;61804;54.926;73.496;2023-04-01T11:39:14;11.88;;;10.65;;
59907;SDS011;61804;54.926;73.496;2023-04-01T11:45:06;7.38;;;3.65;;
59907;SDS011;61804;54.926;73.496;2023-04-01T11:47:52;5.63;;;3.03;;
59907;SDS011;61804;54.926;73.496;2023-04-01T11:50:43;8.02;;;5.03;;
59907;SDS011;61804;54.926;73.496;2023-04-01T11:53:26;7.38;;;4.05;;
59907;SDS011;61804;54.926;73.496;2023-04-01T11:58:46;4.43;;;3.33;;
59907;SDS011;61804;54.926;73.496;2023-04-01T12:03:54;5.18;;;4.43;;
59907;SDS011;61804;54.926;73.496;2023-04-01T12:14:27;7.68;;;4.18;;
59907;SDS011;61804;54.926;73.496;2023-04-01T12:17:24;3.67;;;2.47;;
59907;SDS011;61804;54.926;73.496;2023-04-01T12:25:53;14.35;;;10.50;;
59907;SDS011;61804;54.926;73.496;2023-04-01T12:31:25;29.23;;;24.13;;
59907;SDS011;61804;54.926;73.496;2023-04-01T12:41:54;75.05;;;46.67;;
59907;SDS011;61804;54.926;73.496;2023-04-01T12:52:45;17.33;;;10.80;;
59907;SDS011;61804;54.926;73.496;2023-04-01T12:55:25;14.77;;;9.43;;
59907;SDS011;61804;54.926;73.496;2023-04-01T13:01:03;40.70;;;27.52;;
59907;SDS011;61804;54.926;73.496;2023-04-01T13:04:00;49.25;;;32.78;;
59907;SDS011;61804;54.926;73.496;2023-04-01T13:06:46;45.95;;;35.83;;
59907;SDS011;61804;54.926;73.496;2023-04-01T13:12:14;22.60;;;13.65;;
59907;SDS011;61804;54.926;73.496;2023-04-01T13:17:26;9.15;;;6.28;;
59907;SDS011;61804;54.926;73.496;2023-04-01T13:20:12;10.15;;;6.10;;
59907;SDS011;61804;54.926;73.496;2023-04-01T13:23:01;12.13;;;6.53;;
59907;SDS011;61804;54.926;73.496;2023-04-01T13:25:39;10.98;;;5.68;;
59907;SDS011;61804;54.926;73.496;2023-04-01T13:28:52;25.95;;;17.83;;
59907;SDS011;61804;54.926;73.496;2023-04-01T13:31:36;35.38;;;22.30;;
59907;SDS011;61804;54.926;73.496;2023-04-01T13:34:39;83.55;;;52.35;;
59907;SDS011;61804;54.926;73.496;2023-04-01T13:40:32;17.65;;;14.00;;
59907;SDS011;61804;54.926;73.496;2023-04-01T13:42:59;10.73;;;7.75;;
59907;SDS011;61804;54.926;73.496;2023-04-01T13:46:16;11.13;;;8.93;;
59907;SDS011;61804;54.926;73.496;2023-04-01T13:54:41;29.30;;;18.17;;
59907;SDS011;61804;54.926;73.496;2023-04-01T14:00:50;11.15;;;9.05;;
59907;SDS011;61804;54.926;73.496;2023-04-01T14:05:36;12.30;;;9.40;;
59907;SDS011;61804;54.926;73.496;2023-04-01T14:14:05;11.98;;;8.50;;
59907;SDS011;61804;54.926;73.496;2023-04-01T14:19:20;8.40;;;6.32;;
59907;SDS011;61804;54.926;73.496;2023-04-01T14:30:04;24.67;;;21.83;;
59907;SDS011;61804;54.926;73.496;2023-04-01T14:32:47;64.25;;;50.17;;
59907;SDS011;61804;54.926;73.496;2023-04-01T14:38:29;16.45;;;13.90;;
59907;SDS011;61804;54.926;73.496;2023-04-01T14:49:22;13.50;;;9.05;;
59907;SDS011;61804;54.926;73.496;2023-04-01T14:51:48;12.63;;;6.90;;
59907;SDS011;61804;54.926;73.496;2023-04-01T14:54:33;16.23;;;7.55;;
59907;SDS011;61804;54.926;73.496;2023-04-01T14:57:33;19.33;;;13.50;;
59907;SDS011;61804;54.926;73.496;2023-04-01T15:05:15;11.60;;;7.20;;
59907;SDS011;61804;54.926;73.496;2023-04-01T15:13:13;13.98;;;8.98;;
59907;SDS011;61804;54.926;73.496;2023-04-01T15:15:51;17.10;;;9.90;;
59907;SDS011;61804;54.926;73.496;2023-04-01T15:21:17;13.20;;;7.20;;
59907;SDS011;61804;54.926;73.496;2023-04-01T15:23:54;6.97;;;6.05;;
59907;SDS011;61804;54.926;73.496;2023-04-01T15:34:09;13.23;;;8.10;;
59907;SDS011;61804;54.926;73.496;2023-04-01T15:42:11;5.13;;;3.78;;
59907;SDS011;61804;54.926;73.496;2023-04-01T16:11:43;8.13;;;6.20;;
59907;SDS011;61804;54.926;73.496;2023-04-01T16:22:09;9.35;;;5.72;;
59907;SDS011;61804;54.926;73.496;2023-04-01T16:24:42;6.57;;;3.78;;
59907;SDS011;61804;54.926;73.496;2023-04-01T16:29:51;12.23;;;8.40;;
59907;SDS011;61804;54.926;73.496;2023-04-01T16:35:28;8.20;;;6.75;;
59907;SDS011;61804;54.926;73.496;2023-04-01T16:38:03;7.60;;;5.40;;
59907;SDS011;61804;54.926;73.496;2023-04-01T16:43:56;3.15;;;2.75;;
59907;SDS011;61804;54.926;73.496;2023-04-01T16:46:32;6.07;;;4.25;;
59907;SDS011;61804;54.926;73.496;2023-04-01T16:49:03;6.32;;;4.57;;
59907;SDS011;61804;54.926;73.496;2023-04-01T16:51:33;11.10;;;8.27;;
59907;SDS011;61804;54.926;73.496;2023-04-01T16:57:03;9.20;;;5.85;;
59907;SDS011;61804;54.926;73.496;2023-04-01T16:59:53;17.63;;;12.25;;
59907;SDS011;61804;54.926;73.496;2023-04-01T17:02:23;6.32;;;4.40;;
59907;SDS011;61804;54.926;73.496;2023-04-01T17:04:57;7.13;;;5.45;;
59907;SDS011;61804;54.926;73.496;2023-04-01T17:13:03;5.38;;;3.33;;
59907;SDS011;61804;54.926;73.496;2023-04-01T17:15:46;7.03;;;4.63;;
59907;SDS011;61804;54.926;73.496;2023-04-01T17:18:32;7.10;;;3.92;;
59907;SDS011;61804;54.926;73.496;2023-04-01T17:21:57;20.55;;;9.73;;
59907;SDS011;61804;54.926;73.496;2023-04-01T17:26:46;10.45;;;5.65;;
59907;SDS011;61804;54.926;73.496;2023-04-01T17:32:12;13.00;;;5.57;;
59907;SDS011;61804;54.926;73.496;2023-04-01T17:35:06;6.30;;;4.20;;
59907;SDS011;61804;54.926;73.496;2023-04-01T17:45:57;8.50;;;4.70;;
59907;SDS011;61804;54.926;73.496;2023-04-01T17:53:59;5.22;;;3.13;;
59907;SDS011;61804;54.926;73.496;2023-04-01T17:59:02;4.18;;;2.00;;
59907;SDS011;61804;54.926;73.496;2023-04-01T18:04:34;3.95;;;2.25;;
59907;SDS011;61804;54.926;73.496;2023-04-01T18:07:10;3.28;;;1.67;;
59907;SDS011;61804;54.926;73.496;2023-04-01T18:12:31;4.53;;;3.05;;
59907;SDS011;61804;54.926;73.496;2023-04-01T18:15:13;2.92;;;1.85;;
59907;SDS011;61804;54.926;73.496;2023-04-01T18:17:57;3.78;;;3.38;;
59907;SDS011;61804;54.926;73.496;2023-04-01T18:23:02;4.38;;;3.90;;
59907;SDS011;61804;54.926;73.496;2023-04-01T18:25:34;7.15;;;4.13;;
59907;SDS011;61804;54.926;73.496;2023-04-01T18:30:57;5.25;;;3.97;;
59907;SDS011;61804;54.926;73.496;2023-04-01T18:33:32;5.47;;;2.17;;
59907;SDS011;61804;54.926;73.496;2023-04-01T18:38:39;3.35;;;2.00;;
59907;SDS011;61804;54.926;73.496;2023-04-01T18:44:22;5.22;;;2.42;;
59907;SDS011;61804;54.926;73.496;2023-04-01T18:46:47;3.33;;;2.10;;
59907;SDS011;61804;54.926;73.496;2023-04-01T18:51:50;3.45;;;1.90;;
59907;SDS011;61804;54.926;73.496;2023-04-01T18:54:30;4.28;;;2.22;;
59907;SDS011;61804;54.926;73.496;2023-04-01T18:57:13;3.63;;;2.42;;
59907;SDS011;61804;54.926;73.496;2023-04-01T18:59:47;2.67;;;1.60;;
59907;SDS011;61804;54.926;73.496;2023-04-01T19:21:14;2.22;;;1.67;;
59907;SDS011;61804;54.926;73.496;2023-04-01T19:26:38;0.93;;;0.90;;
59907;SDS011;61804;54.926;73.496;2023-04-01T19:32:12;2.05;;;1.65;;
59907;SDS011;61804;54.926;73.496;2023-04-01T19:37:22;2.67;;;1.13;;
59907;SDS011;61804;54.926;73.496;2023-04-01T19:42:30;2.53;;;1.50;;
59907;SDS011;61804;54.926;73.496;2023-04-01T19:48:49;1.38;;;1.27;;
59907;SDS011;61804;54.926;73.496;2023-04-01T19:50:54;2.17;;;1.38;;
59907;SDS011;61804;54.926;73.496;2023-04-01T20:01:03;3.10;;;1.60;;
59907;SDS011;61804;54.926;73.496;2023-04-01T20:09:06;2.90;;;1.63;;
59907;SDS011;61804;54.926;73.496;2023-04-01T20:16:53;2.40;;;1.77;;
59907;SDS011;61804;54.926;73.496;2023-04-01T20:19:26;1.77;;;1.55;;
59907;SDS011;61804;54.926;73.496;2023-04-01T20:21:57;1.98;;;1.65;;
59907;SDS011;61804;54.926;73.496;2023-04-01T20:24:43;4.43;;;2.25;;
59907;SDS011;61804;54.926;73.496;2023-04-01T20:29:56;1.52;;;1.40;;
59907;SDS011;61804;54.926;73.496;2023-04-01T20:32:28;2.45;;;1.30;;
59907;SDS011;61804;54.926;73.496;2023-04-01T20:37:37;3.75;;;1.77;;
59907;SDS011;61804;54.926;73.496;2023-04-01T20:42:53;3.75;;;2.55;;
59907;SDS011;61804;54.926;73.496;2023-04-01T20:45:30;2.45;;;1.60;;
59907;SDS011;61804;54.926;73.496;2023-04-01T20:53:04;2.13;;;1.73;;
59907;SDS011;61804;54.926;73.496;2023-04-01T20:58:34;3.17;;;1.88;;
59907;SDS011;61804;54.926;73.496;2023-04-01T21:01:33;3.20;;;1.23;;
59907;SDS011;61804;54.926;73.496;2023-04-01T21:17:50;2.38;;;1.35;;
59907;SDS011;61804;54.926;73.496;2023-04-01T21:20:38;2.13;;;1.73;;
59907;SDS011;61804;54.926;73.496;2023-04-01T21:23:13;3.95;;;2.20;;
59907;SDS011;61804;54.926;73.496;2023-04-01T21:25:55;2.45;;;1.45;;
59907;SDS011;61804;54.926;73.496;2023-04-01T21:36:42;1.38;;;1.27;;
59907;SDS011;61804;54.926;73.496;2023-04-01T22:05:25;3.60;;;2.00;;
59907;SDS011;61804;54.926;73.496;2023-04-01T22:13:05;1.40;;;1.10;;
59907;SDS011;61804;54.926;73.496;2023-04-01T22:15:51;4.15;;;1.98;;
59907;SDS011;61804;54.926;73.496;2023-04-01T22:18:32;3.33;;;2.42;;
59907;SDS011;61804;54.926;73.496;2023-04-01T22:26:28;20.95;;;2.53;;
59907;SDS011;61804;54.926;73.496;2023-04-01T22:29:02;2.78;;;1.67;;
59907;SDS011;61804;54.926;73.496;2023-04-01T22:31:44;5.40;;;2.78;;
59907;SDS011;61804;54.926;73.496;2023-04-01T22:34:32;1.60;;;1.50;;
59907;SDS011;61804;54.926;73.496;2023-04-01T22:39:52;2.15;;;1.20;;
59907;SDS011;61804;54.926;73.496;2023-04-01T22:47:27;1.23;;;1.13;;
59907;SDS011;61804;54.926;73.496;2023-04-01T22:50:04;1.38;;;1.27;;
59907;SDS011;61804;54.926;73.496;2023-04-01T22:52:48;1.83;;;1.73;;
59907;SDS011;61804;54.926;73.496;2023-04-01T22:55:27;3.95;;;1.55;;
59907;SDS011;61804;54.926;73.496;2023-04-01T22:58:04;2.55;;;1.42;;
59907;SDS011;61804;54.926;73.496;2023-04-01T23:00:52;2.40;;;1.85;;
59907;SDS011;61804;54.926;73.496;2023-04-01T23:03:30;1.48;;;1.33;;
59907;SDS011;61804;54.926;73.496;2023-04-01T23:05:59;4.05;;;2.05;;
59907;SDS011;61804;54.926;73.496;2023-04-01T23:10:56;2.25;;;2.05;;
59907;SDS011;61804;54.926;73.496;2023-04-01T23:13:26;2.63;;;1.42;;
59907;SDS011;61804;54.926;73.496;2023-04-01T23:15:57;1.38;;;1.27;;
59907;SDS011;61804;54.926;73.496;2023-04-01T23:18:45;6.47;;;1.42;;
59907;SDS011;61804;54.926;73.496;2023-04-01T23:21:39;4.07;;;2.15;;
59907;SDS011;61804;54.926;73.496;2023-04-01T23:27:12;2.65;;;2.45;;
59907;SDS011;61804;54.926;73.496;2023-04-01T23:29:42;4.40;;;2.10;;
59907;SDS011;61804;54.926;73.496;2023-04-01T23:32:23;1.20;;;1.00;;
59907;SDS011;61804;54.926;73.496;2023-04-01T23:35:11;3.95;;;1.88;;
59907;SDS011;61804;54.926;73.496;2023-04-01T23:37:47;12.25;;;9.32;;
59907;SDS011;61804;54.926;73.496;2023-04-01T23:40:26;3.90;;;2.35;;
59907;SDS011;61804;54.926;73.496;2023-04-01T23:42:55;3.05;;;2.50;;
59907;SDS011;61804;54.926;73.496;2023-04-01T23:45:22;2.33;;;1.88;;
59907;SDS011;61804;54.926;73.496;2023-04-01T23:47:50;5.95;;;4.35;;
59907;SDS011;61804;54.926;73.496;2023-04-01T23:50:19;2.03;;;1.67;;
59907;SDS011;61804;54.926;73.496;2023-04-01T23:52:51;6.75;;;3.60;;
59907;SDS011;61804;54.926;73.496;2023-04-01T23:55:32;3.20;;;2.90;;
59907;SDS011;61804;54.926;73.496;2023-04-01T23:58:22;3.25;;;2.17;;
